createdAt,value
2018-03-20T00:00:26.033Z,8.30
2018-03-20T00:01:31.750Z,7.40
2018-03-20T00:02:37.452Z,8.20
2018-03-20T00:03:43.929Z,6.80
2018-03-20T00:04:49.432Z,7.55
2018-03-20T00:05:55.231Z,7.12
2018-03-20T00:07:00.941Z,8.05
2018-03-20T00:08:06.713Z,7.00
2018-03-20T00:09:12.421Z,7.22
2018-03-20T00:10:17.947Z,6.78
2018-03-20T00:11:24.504Z,7.57
2018-03-20T00:12:30.996Z,6.95
2018-03-20T00:13:36.713Z,7.18
2018-03-20T00:14:43.182Z,6.78
2018-03-20T00:15:48.889Z,6.62
2018-03-20T00:16:54.625Z,7.35
2018-03-20T00:18:01.097Z,7.62
2018-03-20T00:19:07.566Z,6.90
2018-03-20T00:20:14.027Z,6.50
2018-03-20T00:21:19.734Z,9.40
2018-03-20T00:22:26.232Z,7.72
2018-03-20T00:23:31.940Z,6.90
2018-03-20T00:24:37.653Z,8.88
2018-03-20T00:25:43.389Z,7.37
2018-03-20T00:26:49.099Z,6.15
2018-03-20T00:27:54.830Z,7.10
2018-03-20T00:29:00.540Z,6.90
2018-03-20T00:30:05.699Z,7.85
2018-03-20T00:31:12.269Z,7.72
2018-03-20T00:32:17.989Z,7.72
2018-03-20T00:33:24.308Z,8.23
2018-03-20T00:34:30.028Z,7.90
2018-03-20T00:35:35.807Z,6.75
2018-03-20T00:36:41.309Z,6.78
2018-03-20T00:37:47.020Z,7.15
2018-03-20T00:38:52.750Z,7.00
2018-03-20T00:39:58.457Z,8.07
2018-03-20T00:41:04.177Z,7.15
2018-03-20T00:42:10.107Z,7.47
2018-03-20T00:43:15.824Z,7.10
2018-03-20T00:44:21.548Z,8.00
2018-03-20T00:45:28.028Z,7.20
2018-03-20T00:46:33.730Z,6.37
2018-03-20T00:47:39.438Z,6.60
2018-03-20T00:48:45.148Z,7.97
2018-03-20T00:49:50.857Z,7.35
2018-03-20T00:50:56.563Z,5.90
2018-03-20T00:52:02.258Z,6.50
2018-03-20T00:53:07.984Z,7.12
2018-03-20T00:54:13.683Z,6.00
2018-03-20T00:55:19.393Z,6.30
2018-03-20T00:56:24.905Z,6.40
2018-03-20T00:57:31.362Z,6.10
2018-03-20T00:58:37.840Z,6.30
2018-03-20T00:59:43.543Z,6.43
2018-03-20T01:00:49.271Z,6.28
2018-03-20T01:01:54.970Z,6.65
2018-03-20T01:03:00.683Z,6.30
2018-03-20T01:04:07.172Z,5.72
2018-03-20T01:05:12.896Z,6.62
2018-03-20T01:06:19.056Z,5.75
2018-03-20T01:07:24.765Z,5.95
2018-03-20T01:08:31.241Z,6.57
2018-03-20T01:09:36.712Z,6.82
2018-03-20T01:10:42.418Z,6.20
2018-03-20T01:11:48.954Z,6.30
2018-03-20T01:12:54.650Z,5.75
2018-03-20T01:14:00.348Z,6.10
2018-03-20T01:15:06.813Z,6.55
2018-03-20T01:16:13.337Z,6.47
2018-03-20T01:17:19.070Z,6.37
2018-03-20T01:18:25.056Z,6.25
2018-03-20T01:19:31.403Z,6.18
2018-03-20T01:20:37.873Z,6.45
2018-03-20T01:21:44.413Z,5.60
2018-03-20T01:22:50.124Z,6.40
2018-03-20T01:23:55.836Z,5.62
2018-03-20T01:25:01.537Z,5.82
2018-03-20T01:26:07.236Z,5.87
2018-03-20T01:27:12.966Z,5.60
2018-03-20T01:28:18.873Z,5.40
2018-03-20T01:29:25.349Z,6.57
2018-03-20T01:30:31.089Z,5.93
2018-03-20T01:31:37.548Z,5.30
2018-03-20T01:32:43.285Z,7.03
2018-03-20T01:33:49.749Z,6.18
2018-03-20T01:34:55.461Z,6.55
2018-03-20T01:36:01.165Z,5.72
2018-03-20T01:37:06.861Z,6.00
2018-03-20T01:38:12.616Z,5.82
2018-03-20T01:39:18.316Z,6.50
2018-03-20T01:40:24.788Z,5.62
2018-03-20T01:41:31.370Z,6.43
2018-03-20T01:42:37.084Z,5.95
2018-03-20T01:43:42.805Z,6.30
2018-03-20T01:44:48.509Z,5.68
2018-03-20T01:45:54.212Z,5.35
2018-03-20T01:47:00.681Z,6.00
2018-03-20T01:48:06.398Z,5.25
2018-03-20T01:49:12.172Z,6.10
2018-03-20T01:50:17.872Z,5.22
2018-03-20T01:51:23.581Z,5.47
2018-03-20T01:52:29.355Z,5.87
2018-03-20T01:53:35.261Z,6.20
2018-03-20T01:54:41.052Z,5.75
2018-03-20T01:55:46.768Z,5.20
2018-03-20T01:56:52.503Z,5.90
2018-03-20T01:57:58.402Z,6.30
2018-03-20T01:59:04.084Z,5.68
2018-03-20T02:00:09.818Z,6.07
2018-03-20T02:01:15.529Z,5.70
2018-03-20T02:02:21.247Z,6.97
2018-03-20T02:03:26.933Z,5.82
2018-03-20T02:04:32.643Z,4.95
2018-03-20T02:05:38.358Z,5.60
2018-03-20T02:06:44.076Z,6.15
2018-03-20T02:07:49.778Z,6.45
2018-03-20T02:08:55.485Z,5.90
2018-03-20T02:10:01.970Z,5.65
2018-03-20T02:11:08.522Z,5.70
2018-03-20T02:12:14.984Z,5.57
2018-03-20T02:13:20.684Z,6.35
2018-03-20T02:14:27.173Z,5.32
2018-03-20T02:15:33.660Z,5.75
2018-03-20T02:16:39.363Z,5.45
2018-03-20T02:17:45.856Z,6.37
2018-03-20T02:18:51.553Z,5.47
2018-03-20T02:19:57.256Z,5.78
2018-03-20T02:21:02.982Z,5.93
2018-03-20T02:22:08.680Z,5.93
2018-03-20T02:23:15.145Z,6.10
2018-03-20T02:24:21.625Z,5.18
2018-03-20T02:25:27.327Z,5.20
2018-03-20T02:26:33.062Z,5.18
2018-03-20T02:27:38.761Z,4.85
2018-03-20T02:28:44.466Z,5.30
2018-03-20T02:29:50.940Z,4.90
2018-03-20T02:30:56.676Z,5.90
2018-03-20T02:32:03.163Z,5.75
2018-03-20T02:33:08.890Z,5.35
2018-03-20T02:34:14.631Z,6.05
2018-03-20T02:35:20.373Z,5.05
2018-03-20T02:36:26.075Z,4.90
2018-03-20T02:37:32.675Z,4.60
2018-03-20T02:38:38.380Z,4.87
2018-03-20T02:39:44.864Z,5.72
2018-03-20T02:40:50.562Z,4.95
2018-03-20T02:41:56.474Z,5.18
2018-03-20T02:43:02.204Z,4.57
2018-03-20T02:44:07.915Z,5.20
2018-03-20T02:45:13.608Z,5.00
2018-03-20T02:46:23.428Z,5.00
2018-03-20T02:47:29.152Z,5.00
2018-03-20T02:48:34.886Z,4.78
2018-03-20T02:49:40.596Z,4.72
2018-03-20T02:50:46.302Z,5.65
2018-03-20T02:51:52.018Z,5.40
2018-03-20T02:52:57.401Z,4.40
2018-03-20T02:54:03.125Z,4.65
2018-03-20T02:55:08.851Z,5.35
2018-03-20T02:56:14.566Z,5.70
2018-03-20T02:57:20.265Z,5.57
2018-03-20T02:58:25.969Z,4.60
2018-03-20T02:59:31.681Z,5.97
2018-03-20T03:00:37.394Z,4.78
2018-03-20T03:01:43.101Z,6.53
2018-03-20T03:02:49.005Z,5.82
2018-03-20T03:03:54.800Z,5.65
2018-03-20T03:05:00.513Z,5.35
2018-03-20T03:06:06.229Z,5.25
2018-03-20T03:07:11.960Z,5.30
2018-03-20T03:08:18.448Z,5.60
2018-03-20T03:09:24.216Z,4.50
2018-03-20T03:10:29.965Z,5.70
2018-03-20T03:11:35.677Z,4.65
2018-03-20T03:12:41.368Z,5.40
2018-03-20T03:13:47.072Z,5.85
2018-03-20T03:14:52.587Z,5.62
2018-03-20T03:15:58.308Z,5.70
2018-03-20T03:17:04.021Z,6.47
2018-03-20T03:18:09.714Z,5.37
2018-03-20T03:19:15.449Z,5.95
2018-03-20T03:20:21.161Z,5.87
2018-03-20T03:21:27.657Z,5.62
2018-03-20T03:22:33.403Z,7.65
2018-03-20T03:23:39.102Z,4.85
2018-03-20T03:24:45.565Z,5.30
2018-03-20T03:25:52.024Z,5.50
2018-03-20T03:26:57.744Z,4.65
2018-03-20T03:28:03.442Z,5.70
2018-03-20T03:29:09.154Z,5.90
2018-03-20T03:30:14.845Z,5.28
2018-03-20T03:31:20.550Z,5.40
2018-03-20T03:32:26.301Z,5.10
2018-03-20T03:33:31.998Z,6.60
2018-03-20T03:34:37.916Z,5.07
2018-03-20T03:35:43.636Z,4.80
2018-03-20T03:36:49.328Z,5.43
2018-03-20T03:37:55.826Z,4.85
2018-03-20T03:39:01.553Z,6.10
2018-03-20T03:40:07.483Z,5.50
2018-03-20T03:41:13.940Z,4.97
2018-03-20T03:42:19.649Z,5.10
2018-03-20T03:43:25.364Z,5.30
2018-03-20T03:44:31.081Z,5.40
2018-03-20T03:45:36.785Z,5.95
2018-03-20T03:46:42.480Z,5.62
2018-03-20T03:47:48.187Z,6.22
2018-03-20T03:48:53.904Z,5.80
2018-03-20T03:50:00.372Z,5.15
2018-03-20T03:51:05.513Z,5.00
2018-03-20T03:52:11.222Z,6.32
2018-03-20T03:53:16.917Z,5.35
2018-03-20T03:54:22.646Z,5.28
2018-03-20T03:55:28.355Z,5.22
2018-03-20T03:56:34.832Z,5.30
2018-03-20T03:57:40.552Z,5.20
2018-03-20T03:58:47.033Z,6.25
2018-03-20T03:59:52.760Z,6.82
2018-03-20T04:00:58.518Z,4.78
2018-03-20T04:02:04.221Z,5.45
2018-03-20T04:03:09.924Z,6.00
2018-03-20T04:04:15.632Z,6.05
2018-03-20T04:05:21.354Z,6.87
2018-03-20T04:06:27.065Z,6.00
2018-03-20T04:07:32.803Z,7.00
2018-03-20T04:08:38.523Z,6.70
2018-03-20T04:09:44.228Z,7.95
2018-03-20T04:10:49.968Z,6.15
2018-03-20T04:11:55.493Z,7.30
2018-03-20T04:13:01.962Z,6.25
2018-03-20T04:14:07.677Z,7.20
2018-03-20T04:15:14.149Z,6.82
2018-03-20T04:16:20.634Z,7.30
2018-03-20T04:17:26.343Z,6.32
2018-03-20T04:18:32.818Z,7.00
2018-03-20T04:19:38.540Z,7.32
2018-03-20T04:20:44.830Z,7.28
2018-03-20T04:21:50.252Z,6.87
2018-03-20T04:22:56.541Z,6.15
2018-03-20T04:24:02.285Z,7.87
2018-03-20T04:25:08.017Z,7.15
2018-03-20T04:26:13.725Z,6.53
2018-03-20T04:27:20.214Z,5.40
2018-03-20T04:28:25.916Z,7.30
2018-03-20T04:29:32.383Z,6.22
2018-03-20T04:30:38.092Z,6.82
2018-03-20T04:31:43.788Z,6.07
2018-03-20T04:32:49.526Z,7.07
2018-03-20T04:33:55.247Z,7.05
2018-03-20T04:35:00.961Z,6.87
2018-03-20T04:36:06.656Z,6.90
2018-03-20T04:37:12.394Z,6.97
2018-03-20T04:38:18.447Z,6.62
2018-03-20T04:39:23.964Z,6.65
2018-03-20T04:40:29.680Z,5.70
2018-03-20T04:41:36.149Z,5.22
2018-03-20T04:42:41.861Z,6.30
2018-03-20T04:43:48.612Z,6.20
2018-03-20T04:44:54.302Z,6.20
2018-03-20T04:46:00.012Z,6.78
2018-03-20T04:47:06.474Z,5.95
2018-03-20T04:48:13.395Z,7.60
2018-03-20T04:49:19.276Z,6.30
2018-03-20T04:50:25.765Z,6.03
2018-03-20T04:51:31.477Z,7.25
2018-03-20T04:52:37.176Z,5.53
2018-03-20T04:53:42.869Z,5.80
2018-03-20T04:54:49.369Z,6.15
2018-03-20T04:55:55.090Z,6.57
2018-03-20T04:57:00.601Z,5.53
2018-03-20T04:58:07.077Z,5.15
2018-03-20T04:59:12.838Z,5.78
2018-03-20T05:00:18.716Z,5.95
2018-03-20T05:01:24.417Z,5.87
2018-03-20T05:02:34.834Z,6.10
2018-03-20T05:03:40.764Z,5.90
2018-03-20T05:04:46.485Z,5.85
2018-03-20T05:05:52.188Z,6.60
2018-03-20T05:06:57.934Z,6.25
2018-03-20T05:08:03.645Z,6.40
2018-03-20T05:09:10.108Z,6.05
2018-03-20T05:10:16.588Z,5.95
2018-03-20T05:11:23.139Z,6.78
2018-03-20T05:12:29.597Z,6.03
2018-03-20T05:13:35.297Z,5.78
2018-03-20T05:14:41.034Z,5.93
2018-03-20T05:15:46.537Z,5.97
2018-03-20T05:16:51.851Z,7.32
2018-03-20T05:17:57.792Z,5.35
2018-03-20T05:19:15.193Z,5.40
2018-03-20T05:20:26.952Z,5.68
2018-03-20T05:23:16.368Z,6.10
2018-03-20T05:24:21.942Z,6.32
2018-03-20T05:25:27.609Z,5.65
2018-03-20T05:26:33.133Z,6.45
2018-03-20T05:27:38.689Z,6.80
2018-03-20T05:28:44.996Z,6.43
2018-03-20T05:29:50.575Z,5.82
2018-03-20T05:30:56.111Z,5.75
2018-03-20T05:32:01.621Z,6.05
2018-03-20T05:33:07.143Z,5.82
2018-03-20T05:34:12.701Z,6.18
2018-03-20T05:35:18.216Z,6.07
2018-03-20T05:36:23.728Z,5.30
2018-03-20T05:37:29.258Z,5.55
2018-03-20T05:38:34.802Z,5.32
2018-03-20T05:39:41.079Z,6.87
2018-03-20T05:40:46.588Z,6.07
2018-03-20T05:41:52.154Z,6.32
2018-03-20T05:42:58.586Z,6.55
2018-03-20T05:44:04.142Z,5.30
2018-03-20T05:45:09.650Z,6.50
2018-03-20T05:46:15.158Z,6.03
2018-03-20T05:47:26.976Z,6.50
2018-03-20T05:48:38.096Z,5.18
2018-03-20T05:51:32.945Z,5.40
2018-03-20T05:52:38.473Z,6.25
2018-03-20T05:53:44.197Z,6.30
2018-03-20T05:54:50.674Z,7.03
2018-03-20T05:55:56.416Z,5.62
2018-03-20T05:57:02.130Z,6.28
2018-03-20T05:58:08.588Z,6.40
2018-03-20T05:59:15.085Z,6.05
2018-03-20T06:00:20.799Z,5.32
2018-03-20T06:01:26.336Z,4.32
2018-03-20T06:02:32.060Z,6.32
2018-03-20T06:03:37.755Z,6.90
2018-03-20T06:04:43.446Z,5.43
2018-03-20T06:05:49.946Z,5.95
2018-03-20T06:06:55.641Z,6.00
2018-03-20T06:08:02.110Z,5.87
2018-03-20T06:09:08.576Z,5.68
2018-03-20T06:10:14.268Z,5.37
2018-03-20T06:11:20.055Z,5.90
2018-03-20T06:12:26.308Z,6.18
2018-03-20T06:13:32.021Z,5.85
2018-03-20T06:14:37.728Z,5.28
2018-03-20T06:15:43.415Z,6.00
2018-03-20T06:16:49.736Z,5.72
2018-03-20T06:17:55.429Z,5.75
2018-03-20T06:19:01.166Z,5.95
2018-03-20T06:20:07.630Z,6.15
2018-03-20T06:21:13.343Z,5.55
2018-03-20T06:22:19.070Z,6.43
2018-03-20T06:23:24.777Z,6.40
2018-03-20T06:24:30.498Z,6.00
2018-03-20T06:25:36.202Z,5.05
2018-03-20T06:26:41.904Z,6.68
2018-03-20T06:27:47.915Z,6.03
2018-03-20T06:28:54.377Z,5.90
2018-03-20T06:30:00.073Z,6.15
2018-03-20T06:31:05.785Z,6.62
2018-03-20T06:32:11.507Z,5.93
2018-03-20T06:33:17.241Z,6.60
2018-03-20T06:34:22.957Z,6.95
2018-03-20T06:35:28.665Z,5.90
2018-03-20T06:36:34.369Z,6.35
2018-03-20T06:37:40.103Z,5.85
2018-03-20T06:38:45.848Z,6.95
2018-03-20T06:39:51.555Z,5.80
2018-03-20T06:40:57.315Z,6.55
2018-03-20T06:42:03.025Z,6.90
2018-03-20T06:43:08.721Z,6.78
2018-03-20T06:44:14.446Z,6.32
2018-03-20T06:45:20.189Z,6.68
2018-03-20T06:46:25.906Z,6.37
2018-03-20T06:47:31.609Z,6.80
2018-03-20T06:48:37.317Z,7.70
2018-03-20T06:49:43.045Z,7.35
2018-03-20T06:50:48.760Z,7.20
2018-03-20T06:51:55.249Z,7.15
2018-03-20T06:53:00.957Z,6.68
2018-03-20T06:54:06.673Z,7.75
2018-03-20T06:55:12.415Z,7.43
2018-03-20T06:56:18.120Z,6.87
2018-03-20T06:57:23.828Z,6.60
2018-03-20T06:58:30.298Z,6.40
2018-03-20T06:59:36.822Z,7.03
2018-03-20T07:00:42.710Z,7.20
2018-03-20T07:01:48.229Z,7.47
2018-03-20T07:02:54.699Z,6.97
2018-03-20T07:04:00.415Z,6.90
2018-03-20T07:05:06.905Z,6.72
2018-03-20T07:06:13.101Z,6.32
2018-03-20T07:07:18.989Z,6.40
2018-03-20T07:08:25.465Z,7.12
2018-03-20T07:09:31.189Z,6.45
2018-03-20T07:10:37.657Z,6.53
2018-03-20T07:11:43.421Z,6.57
2018-03-20T07:12:49.112Z,7.03
2018-03-20T07:13:54.812Z,7.00
2018-03-20T07:15:00.525Z,7.62
2018-03-20T07:16:06.231Z,7.12
2018-03-20T07:17:12.857Z,7.20
2018-03-20T07:18:18.569Z,7.47
2018-03-20T07:19:24.265Z,7.03
2018-03-20T07:20:30.551Z,7.60
2018-03-20T07:21:36.260Z,6.72
2018-03-20T07:22:42.017Z,7.87
2018-03-20T07:23:48.484Z,7.20
2018-03-20T07:24:54.968Z,7.70
2018-03-20T07:26:00.682Z,5.78
2018-03-20T07:27:07.349Z,7.60
2018-03-20T07:28:13.105Z,6.72
2018-03-20T07:29:18.829Z,8.10
2018-03-20T07:30:24.547Z,7.30
2018-03-20T07:31:30.264Z,6.72
2018-03-20T07:32:35.961Z,7.70
2018-03-20T07:33:41.685Z,5.87
2018-03-20T07:34:47.439Z,7.05
2018-03-20T07:35:53.131Z,7.15
2018-03-20T07:36:58.819Z,7.22
2018-03-20T07:38:04.514Z,7.55
2018-03-20T07:39:10.277Z,6.65
2018-03-20T07:40:16.124Z,6.85
2018-03-20T07:41:22.598Z,7.25
2018-03-20T07:42:29.046Z,6.10
2018-03-20T07:43:34.756Z,7.85
2018-03-20T07:44:40.486Z,6.60
2018-03-20T07:45:46.170Z,6.80
2018-03-20T07:46:51.853Z,6.95
2018-03-20T07:47:57.549Z,6.62
2018-03-20T07:49:04.000Z,7.43
2018-03-20T07:50:10.510Z,7.37
2018-03-20T07:51:16.201Z,7.43
2018-03-20T07:52:22.673Z,6.72
2018-03-20T07:53:28.363Z,6.70
2018-03-20T07:54:33.871Z,6.95
2018-03-20T07:55:39.479Z,7.12
2018-03-20T07:56:45.385Z,7.68
2018-03-20T07:57:51.085Z,6.60
2018-03-20T07:58:56.792Z,7.37
2018-03-20T08:00:02.487Z,7.95
2018-03-20T08:01:08.209Z,7.57
2018-03-20T08:02:13.911Z,7.18
2018-03-20T08:03:19.604Z,7.43
2018-03-20T08:04:26.079Z,7.75
2018-03-20T08:05:31.770Z,7.00
2018-03-20T08:06:38.380Z,7.50
2018-03-20T08:07:44.075Z,7.80
2018-03-20T08:08:50.545Z,7.75
2018-03-20T08:09:57.012Z,7.45
2018-03-20T08:11:02.803Z,8.55
2018-03-20T08:12:08.522Z,8.15
2018-03-20T08:13:14.289Z,7.00
2018-03-20T08:14:20.192Z,7.45
2018-03-20T08:15:26.127Z,8.02
2018-03-20T08:16:31.837Z,9.07
2018-03-20T08:17:38.312Z,7.90
2018-03-20T08:18:43.767Z,7.30
2018-03-20T08:19:49.459Z,9.02
2018-03-20T08:20:55.936Z,7.55
2018-03-20T08:22:02.396Z,7.80
2018-03-20T08:23:08.125Z,7.85
2018-03-20T08:24:14.605Z,7.53
2018-03-20T08:25:21.052Z,7.78
2018-03-20T08:26:26.752Z,8.25
2018-03-20T08:27:32.461Z,8.35
2018-03-20T08:28:38.185Z,7.62
2018-03-20T08:29:43.872Z,8.10
2018-03-20T08:30:49.599Z,6.97
2018-03-20T08:31:56.420Z,8.60
2018-03-20T08:33:02.120Z,7.45
2018-03-20T08:34:07.846Z,7.70
2018-03-20T08:35:13.558Z,8.05
2018-03-20T08:36:19.254Z,7.80
2018-03-20T08:37:24.940Z,7.90
2018-03-20T08:38:30.676Z,7.78
2018-03-20T08:39:36.384Z,9.35
2018-03-20T08:40:43.172Z,6.93
2018-03-20T08:41:48.545Z,7.95
2018-03-20T08:42:54.339Z,9.23
2018-03-20T08:44:00.038Z,8.30
2018-03-20T08:45:05.744Z,8.05
2018-03-20T08:46:11.449Z,10.00
2018-03-20T08:47:17.912Z,8.57
2018-03-20T08:48:24.392Z,8.05
2018-03-20T08:49:30.103Z,8.50
2018-03-20T08:50:36.580Z,7.97
2018-03-20T08:51:42.523Z,7.93
2018-03-20T08:52:49.041Z,6.97
2018-03-20T08:53:54.747Z,7.95
2018-03-20T08:55:00.435Z,8.45
2018-03-20T08:56:06.921Z,7.57
2018-03-20T08:57:12.616Z,7.72
2018-03-20T08:58:18.304Z,7.50
2018-03-20T08:59:24.018Z,7.75
2018-03-20T09:00:30.520Z,8.30
2018-03-20T09:05:03.085Z,6.90
2018-03-20T09:06:09.539Z,8.25
2018-03-20T09:07:15.828Z,7.20
2018-03-20T09:08:21.534Z,8.23
2018-03-20T09:09:28.010Z,8.80
2018-03-20T09:10:33.708Z,8.35
2018-03-20T09:11:39.424Z,8.90
2018-03-20T09:12:45.129Z,7.68
2018-03-20T09:13:50.832Z,7.68
2018-03-20T09:14:56.557Z,7.78
2018-03-20T09:16:03.752Z,8.30
2018-03-20T09:17:09.449Z,8.35
2018-03-20T09:18:15.186Z,8.20
2018-03-20T09:19:20.885Z,8.40
2018-03-20T09:20:27.358Z,7.68
2018-03-20T09:21:33.822Z,7.32
2018-03-20T09:22:39.516Z,7.70
2018-03-20T09:23:45.236Z,8.05
2018-03-20T09:24:50.943Z,8.73
2018-03-20T09:25:56.653Z,8.25
2018-03-20T09:27:03.121Z,7.93
2018-03-20T09:28:09.588Z,8.20
2018-03-20T09:29:16.066Z,8.05
2018-03-20T09:30:21.800Z,8.18
2018-03-20T09:31:28.448Z,9.35
2018-03-20T09:32:34.148Z,9.00
2018-03-20T09:33:39.858Z,9.07
2018-03-20T09:34:45.571Z,8.60
2018-03-20T09:35:52.037Z,7.85
2018-03-20T09:36:57.738Z,8.98
2018-03-20T09:38:03.494Z,8.23
2018-03-20T09:39:09.222Z,7.82
2018-03-20T09:40:14.929Z,8.10
2018-03-20T09:41:20.633Z,7.85
2018-03-20T09:42:27.090Z,8.93
2018-03-20T09:43:32.780Z,7.70
2018-03-20T09:44:38.947Z,9.00
2018-03-20T09:45:44.679Z,8.02
2018-03-20T09:46:50.374Z,9.35
2018-03-20T09:47:56.064Z,8.98
2018-03-20T09:49:01.772Z,8.80
2018-03-20T09:50:07.669Z,8.90
2018-03-20T09:51:14.180Z,8.90
2018-03-20T09:52:19.876Z,9.15
2018-03-20T09:53:26.404Z,8.57
2018-03-20T09:54:31.793Z,8.50
2018-03-20T09:55:37.484Z,8.50
2018-03-20T09:56:43.220Z,8.82
2018-03-20T09:57:48.971Z,8.73
2018-03-20T09:58:54.667Z,9.52
2018-03-20T10:00:00.372Z,10.10
2018-03-20T10:01:06.076Z,9.57
2018-03-20T10:02:11.793Z,8.65
2018-03-20T10:03:17.498Z,10.13
2018-03-20T10:04:23.205Z,8.60
2018-03-20T10:05:28.924Z,9.25
2018-03-20T10:06:34.617Z,8.50
2018-03-20T10:07:41.100Z,7.65
2018-03-20T10:08:46.816Z,8.88
2018-03-20T10:09:53.298Z,8.57
2018-03-20T10:10:58.992Z,8.60
2018-03-20T10:12:04.744Z,8.95
2018-03-20T10:13:10.437Z,8.10
2018-03-20T10:14:16.140Z,8.75
2018-03-20T10:15:21.861Z,8.90
2018-03-20T10:16:27.557Z,9.35
2018-03-20T10:17:33.285Z,9.05
2018-03-20T10:18:38.989Z,9.68
2018-03-20T10:19:45.461Z,9.30
2018-03-20T10:20:51.166Z,8.93
2018-03-20T10:21:56.876Z,9.65
2018-03-20T10:23:02.612Z,10.52
2018-03-20T10:24:08.325Z,10.00
2018-03-20T10:25:14.044Z,8.80
2018-03-20T10:26:19.545Z,9.90
2018-03-20T10:27:25.451Z,8.90
2018-03-20T10:28:31.287Z,9.73
2018-03-20T10:29:37.033Z,9.75
2018-03-20T10:30:42.912Z,10.27
2018-03-20T10:31:48.610Z,9.07
2018-03-20T10:32:55.078Z,9.98
2018-03-20T10:34:00.796Z,10.98
2018-03-20T10:35:06.515Z,11.43
2018-03-20T10:36:12.234Z,9.70
2018-03-20T10:37:17.933Z,9.63
2018-03-20T10:38:23.726Z,10.98
2018-03-20T10:39:29.721Z,10.00
2018-03-20T10:40:35.426Z,11.18
2018-03-20T10:41:41.126Z,10.85
2018-03-20T10:42:46.850Z,11.12
2018-03-20T10:43:52.575Z,10.70
2018-03-20T10:44:58.561Z,10.10
2018-03-20T10:46:04.269Z,10.45
2018-03-20T10:47:09.999Z,11.02
2018-03-20T10:48:16.610Z,11.32
2018-03-20T10:49:22.372Z,11.65
2018-03-20T10:50:28.113Z,11.38
2018-03-20T10:51:33.891Z,11.35
2018-03-20T10:52:40.379Z,11.32
2018-03-20T10:53:46.102Z,11.12
2018-03-20T10:54:51.816Z,11.52
2018-03-20T10:55:58.312Z,10.52
2018-03-20T10:57:04.042Z,11.10
2018-03-20T10:58:09.748Z,11.15
2018-03-20T10:59:16.280Z,11.57
2018-03-20T11:00:27.437Z,11.73
2018-03-20T11:01:33.001Z,11.07
2018-03-20T11:02:44.369Z,12.80
2018-03-20T11:03:50.093Z,11.27
2018-03-20T11:04:56.600Z,12.13
2018-03-20T11:06:03.096Z,11.10
2018-03-20T11:07:08.820Z,12.02
2018-03-20T11:08:14.536Z,11.98
2018-03-20T11:09:21.016Z,12.05
2018-03-20T11:10:26.822Z,12.57
2018-03-20T11:11:32.717Z,10.90
2018-03-20T11:12:38.486Z,11.63
2018-03-20T11:13:44.228Z,12.32
2018-03-20T11:14:49.936Z,11.15
2018-03-20T11:15:55.673Z,11.63
2018-03-20T11:17:01.409Z,11.12
2018-03-20T11:18:07.131Z,11.60
2018-03-20T11:19:13.614Z,11.50
2018-03-20T11:20:19.328Z,12.30
2018-03-20T11:21:25.828Z,12.05
2018-03-20T11:22:31.569Z,11.00
2018-03-20T11:23:37.293Z,11.80
2018-03-20T11:24:43.039Z,11.95
2018-03-20T11:25:48.956Z,12.00
2018-03-20T11:26:54.514Z,11.48
2018-03-20T11:28:00.301Z,12.10
2018-03-20T11:29:06.007Z,12.70
2018-03-20T11:30:11.714Z,13.02
2018-03-20T11:31:18.248Z,14.30
2018-03-20T11:32:23.965Z,13.73
2018-03-20T11:33:29.750Z,12.10
2018-03-20T11:34:36.634Z,12.05
2018-03-20T11:35:42.690Z,12.00
2018-03-20T11:36:48.412Z,13.43
2018-03-20T11:37:54.884Z,12.60
2018-03-20T11:39:00.643Z,13.10
2018-03-20T11:40:06.363Z,13.00
2018-03-20T11:41:12.079Z,13.07
2018-03-20T11:42:18.574Z,13.15
2018-03-20T11:43:23.959Z,12.77
2018-03-20T11:44:29.521Z,13.98
2018-03-20T11:45:35.993Z,13.62
2018-03-20T11:46:41.743Z,13.15
2018-03-20T11:47:47.448Z,12.68
2018-03-20T11:48:53.934Z,13.48
2018-03-20T11:49:59.657Z,14.23
2018-03-20T11:51:06.144Z,13.80
2018-03-20T11:52:11.868Z,13.07
2018-03-20T11:53:17.593Z,14.57
2018-03-20T11:54:24.080Z,14.52
2018-03-20T11:55:29.814Z,13.60
2018-03-20T11:56:35.524Z,14.23
2018-03-20T11:57:42.016Z,13.62
2018-03-20T11:58:47.756Z,13.55
2018-03-20T11:59:53.469Z,14.05
2018-03-20T12:00:59.983Z,13.80
2018-03-20T12:02:05.184Z,14.73
2018-03-20T12:03:10.909Z,14.63
2018-03-20T12:04:17.796Z,14.05
2018-03-20T12:05:23.524Z,14.05
2018-03-20T12:06:30.032Z,14.35
2018-03-20T12:07:34.853Z,13.80
2018-03-20T12:08:51.013Z,14.43
2018-03-20T12:09:56.742Z,14.90
2018-03-20T12:11:02.482Z,14.80
2018-03-20T12:12:08.228Z,14.50
2018-03-20T12:13:14.021Z,15.25
2018-03-20T12:14:19.756Z,14.85
2018-03-20T12:15:25.484Z,15.77
2018-03-20T12:16:31.197Z,16.92
2018-03-20T12:17:36.929Z,16.10
2018-03-20T12:18:42.636Z,16.37
2018-03-20T12:19:48.350Z,15.40
2018-03-20T12:20:55.075Z,15.70
2018-03-20T12:22:00.806Z,14.87
2018-03-20T12:23:05.890Z,14.50
2018-03-20T12:24:11.613Z,15.18
2018-03-20T12:25:17.383Z,14.48
2018-03-20T12:26:23.253Z,12.73
2018-03-20T12:27:28.992Z,11.75
2018-03-20T12:28:35.511Z,13.55
2018-03-20T12:29:41.288Z,11.55
2018-03-20T12:30:47.781Z,12.27
2018-03-20T12:31:53.527Z,13.73
2018-03-20T12:32:59.414Z,14.00
2018-03-20T12:34:05.150Z,13.05
2018-03-20T12:35:10.940Z,13.02
2018-03-20T12:36:16.859Z,14.25
2018-03-20T12:37:23.338Z,13.68
2018-03-20T12:38:29.044Z,8.90
2018-03-20T12:39:34.779Z,13.60
2018-03-20T12:40:40.563Z,12.30
2018-03-20T12:41:46.278Z,10.45
2018-03-20T12:42:52.828Z,12.13
2018-03-20T12:43:58.537Z,12.35
2018-03-20T12:45:04.058Z,12.55
2018-03-20T12:46:09.466Z,12.15
2018-03-20T12:47:15.173Z,11.20
2018-03-20T12:48:20.885Z,8.73
2018-03-20T12:49:26.607Z,13.93
2018-03-20T12:50:33.054Z,12.93
2018-03-20T12:51:38.790Z,11.75
2018-03-20T12:52:44.505Z,11.60
2018-03-20T12:53:50.204Z,7.72
2018-03-20T12:54:56.230Z,14.38
2018-03-20T12:56:01.961Z,11.52
2018-03-20T12:57:07.674Z,10.50
2018-03-20T12:58:14.262Z,13.43
2018-03-20T12:59:20.737Z,8.23
2018-03-20T13:00:26.444Z,8.25
2018-03-20T13:01:32.950Z,10.88
2018-03-20T13:02:38.670Z,6.55
2018-03-20T13:03:44.369Z,10.25
2018-03-20T13:04:50.872Z,11.98
2018-03-20T13:05:56.575Z,7.85
2018-03-20T13:07:03.213Z,12.30
2018-03-20T13:08:08.929Z,10.68
2018-03-20T13:09:14.746Z,10.43
2018-03-20T13:10:20.497Z,13.80
2018-03-20T13:11:27.000Z,10.70
2018-03-20T13:12:32.797Z,11.38
2018-03-20T13:13:38.511Z,11.93
2018-03-20T13:14:45.009Z,10.23
2018-03-20T13:15:50.740Z,13.00
2018-03-20T13:16:56.105Z,7.62
2018-03-20T13:18:01.832Z,9.57
2018-03-20T13:19:07.558Z,11.18
2018-03-20T13:20:13.333Z,10.85
2018-03-20T13:21:19.054Z,10.95
2018-03-20T13:22:24.786Z,12.30
2018-03-20T13:23:30.527Z,10.40
2018-03-20T13:24:36.241Z,11.38
2018-03-20T13:25:42.939Z,6.18
2018-03-20T13:26:48.629Z,7.82
2018-03-20T13:27:55.110Z,8.25
2018-03-20T13:29:00.853Z,6.57
2018-03-20T13:30:06.586Z,9.10
2018-03-20T13:31:13.268Z,10.95
2018-03-20T13:32:18.990Z,9.77
2018-03-20T13:33:25.463Z,8.73
2018-03-20T13:34:31.603Z,11.38
2018-03-20T13:35:37.316Z,11.12
2018-03-20T13:36:43.800Z,8.20
2018-03-20T13:37:49.715Z,7.72
2018-03-20T13:38:55.417Z,7.32
2018-03-20T13:40:01.257Z,9.05
2018-03-20T13:41:06.994Z,10.52
2018-03-20T13:42:12.909Z,11.35
2018-03-20T13:43:18.714Z,9.27
2018-03-20T13:44:24.459Z,10.65
2018-03-20T13:45:33.929Z,7.62
2018-03-20T13:46:39.750Z,8.55
2018-03-20T13:47:48.093Z,8.43
2018-03-20T13:48:54.215Z,10.43
2018-03-20T13:49:59.999Z,8.90
2018-03-20T13:51:06.770Z,7.78
2018-03-20T13:52:12.503Z,10.32
2018-03-20T13:53:33.771Z,12.57
2018-03-20T13:54:39.489Z,9.85
2018-03-20T13:55:45.201Z,8.60
2018-03-20T13:56:50.941Z,14.20
2018-03-20T13:57:56.948Z,8.50
2018-03-20T13:59:02.654Z,7.03
2018-03-20T14:00:08.413Z,7.60
2018-03-20T14:01:14.309Z,8.50
2018-03-20T14:02:20.859Z,7.80
2018-03-20T14:03:26.588Z,9.40
2018-03-20T14:04:32.300Z,11.27
2018-03-20T14:05:38.020Z,12.20
2018-03-20T14:06:43.741Z,8.57
2018-03-20T14:07:49.761Z,10.32
2018-03-20T14:08:56.510Z,9.95
2018-03-20T14:10:02.330Z,7.93
2018-03-20T14:11:09.070Z,8.07
2018-03-20T14:12:15.799Z,12.30
2018-03-20T14:13:21.531Z,9.27
2018-03-20T14:14:27.252Z,12.02
2018-03-20T14:15:33.879Z,13.73
2018-03-20T14:16:39.606Z,14.77
2018-03-20T14:17:45.427Z,9.52
2018-03-20T14:18:51.248Z,11.50
2018-03-20T14:19:57.031Z,10.98
2018-03-20T14:21:04.094Z,8.32
2018-03-20T14:22:10.112Z,12.85
2018-03-20T14:23:15.907Z,10.20
2018-03-20T14:24:22.055Z,13.30
2018-03-20T14:25:27.778Z,11.12
2018-03-20T14:26:33.506Z,13.38
2018-03-20T14:27:40.181Z,12.93
2018-03-20T14:28:45.935Z,11.50
2018-03-20T14:29:51.701Z,9.80
2018-03-20T14:30:58.381Z,12.98
2018-03-20T14:32:04.476Z,14.00
2018-03-20T14:33:10.491Z,9.18
2018-03-20T14:34:16.597Z,10.40
2018-03-20T14:35:23.274Z,8.65
2018-03-20T14:36:30.621Z,14.55
2018-03-20T14:37:36.340Z,10.75
2018-03-20T14:38:42.795Z,9.50